sensor_id;sensor_type;location;lat;lon;timestamp;temperature;humidity
56478;DHT22;42382;53.210;5.772;2023-06-26T00:01:15;25.20;57.80
56478;DHT22;42382;53.210;5.772;2023-06-26T00:03:41;25.10;58.00
56478;DHT22;42382;53.210;5.772;2023-06-26T00:06:06;25.10;58.10
56478;DHT22;42382;53.210;5.772;2023-06-26T00:08:32;25.10;58.20
56478;DHT22;42382;53.210;5.772;2023-06-26T00:10:57;25.00;58.60
56478;DHT22;42382;53.210;5.772;2023-06-26T00:13:24;24.90;58.90
56478;DHT22;42382;53.210;5.772;2023-06-26T00:15:50;24.90;58.90
56478;DHT22;42382;53.210;5.772;2023-06-26T00:18:16;24.90;59.10
56478;DHT22;42382;53.210;5.772;2023-06-26T00:20:42;24.90;59.20
56478;DHT22;42382;53.210;5.772;2023-06-26T00:23:07;24.90;59.20
56478;DHT22;42382;53.210;5.772;2023-06-26T00:25:33;24.90;59.40
56478;DHT22;42382;53.210;5.772;2023-06-26T00:27:59;24.90;59.60
56478;DHT22;42382;53.210;5.772;2023-06-26T00:30:25;24.80;59.80
56478;DHT22;42382;53.210;5.772;2023-06-26T00:32:50;24.80;59.80
56478;DHT22;42382;53.210;5.772;2023-06-26T00:35:17;24.70;60.00
56478;DHT22;42382;53.210;5.772;2023-06-26T00:37:43;24.70;60.50
56478;DHT22;42382;53.210;5.772;2023-06-26T00:40:09;24.60;60.50
56478;DHT22;42382;53.210;5.772;2023-06-26T00:42:34;24.50;61.00
56478;DHT22;42382;53.210;5.772;2023-06-26T00:45:00;24.50;61.10
56478;DHT22;42382;53.210;5.772;2023-06-26T00:47:26;24.50;61.10
56478;DHT22;42382;53.210;5.772;2023-06-26T00:49:53;24.40;61.20
56478;DHT22;42382;53.210;5.772;2023-06-26T00:52:20;24.40;61.30
56478;DHT22;42382;53.210;5.772;2023-06-26T00:54:46;24.40;61.50
56478;DHT22;42382;53.210;5.772;2023-06-26T00:57:12;24.40;61.60
56478;DHT22;42382;53.210;5.772;2023-06-26T00:59:39;24.30;61.70
56478;DHT22;42382;53.210;5.772;2023-06-26T01:02:05;24.30;61.80
56478;DHT22;42382;53.210;5.772;2023-06-26T01:04:31;24.30;61.80
56478;DHT22;42382;53.210;5.772;2023-06-26T01:06:59;24.30;62.00
56478;DHT22;42382;53.210;5.772;2023-06-26T01:09:25;24.20;62.20
56478;DHT22;42382;53.210;5.772;2023-06-26T01:11:52;24.10;62.50
56478;DHT22;42382;53.210;5.772;2023-06-26T01:14:17;24.10;62.50
56478;DHT22;42382;53.210;5.772;2023-06-26T01:19:21;24.10;62.60
56478;DHT22;42382;53.210;5.772;2023-06-26T01:21:55;24.00;62.70
56478;DHT22;42382;53.210;5.772;2023-06-26T01:24:22;24.00;62.80
56478;DHT22;42382;53.210;5.772;2023-06-26T01:26:53;23.90;63.20
56478;DHT22;42382;53.210;5.772;2023-06-26T01:29:19;23.90;63.40
56478;DHT22;42382;53.210;5.772;2023-06-26T01:31:46;23.90;63.60
56478;DHT22;42382;53.210;5.772;2023-06-26T01:34:16;23.90;64.00
56478;DHT22;42382;53.210;5.772;2023-06-26T01:36:42;23.80;64.40
56478;DHT22;42382;53.210;5.772;2023-06-26T01:39:08;23.70;64.70
56478;DHT22;42382;53.210;5.772;2023-06-26T01:41:34;23.60;64.70
56478;DHT22;42382;53.210;5.772;2023-06-26T01:44:21;23.50;65.10
56478;DHT22;42382;53.210;5.772;2023-06-26T01:49:26;23.40;65.90
56478;DHT22;42382;53.210;5.772;2023-06-26T01:52:26;23.40;66.20
56478;DHT22;42382;53.210;5.772;2023-06-26T01:55:09;23.40;66.40
56478;DHT22;42382;53.210;5.772;2023-06-26T01:57:36;23.30;66.60
56478;DHT22;42382;53.210;5.772;2023-06-26T02:00:02;23.30;66.60
56478;DHT22;42382;53.210;5.772;2023-06-26T02:02:29;23.30;67.20
56478;DHT22;42382;53.210;5.772;2023-06-26T02:04:55;23.30;67.20
56478;DHT22;42382;53.210;5.772;2023-06-26T02:07:20;23.20;67.40
56478;DHT22;42382;53.210;5.772;2023-06-26T02:09:46;23.20;67.40
56478;DHT22;42382;53.210;5.772;2023-06-26T02:12:12;23.30;67.30
56478;DHT22;42382;53.210;5.772;2023-06-26T02:14:37;23.20;67.90
56478;DHT22;42382;53.210;5.772;2023-06-26T02:17:03;23.20;67.80
56478;DHT22;42382;53.210;5.772;2023-06-26T02:19:29;23.20;68.60
56478;DHT22;42382;53.210;5.772;2023-06-26T02:21:55;23.10;68.40
56478;DHT22;42382;53.210;5.772;2023-06-26T02:24:20;23.20;68.40
56478;DHT22;42382;53.210;5.772;2023-06-26T02:26:46;23.20;68.50
56478;DHT22;42382;53.210;5.772;2023-06-26T02:29:12;23.20;68.60
56478;DHT22;42382;53.210;5.772;2023-06-26T02:31:38;23.20;69.00
56478;DHT22;42382;53.210;5.772;2023-06-26T02:34:04;23.00;69.30
56478;DHT22;42382;53.210;5.772;2023-06-26T02:36:29;22.90;69.70
56478;DHT22;42382;53.210;5.772;2023-06-26T02:38:55;22.80;69.90
56478;DHT22;42382;53.210;5.772;2023-06-26T02:41:21;22.80;70.10
56478;DHT22;42382;53.210;5.772;2023-06-26T02:43:46;22.70;70.30
56478;DHT22;42382;53.210;5.772;2023-06-26T02:46:12;22.60;70.40
56478;DHT22;42382;53.210;5.772;2023-06-26T02:48:37;22.50;70.40
56478;DHT22;42382;53.210;5.772;2023-06-26T02:51:03;22.40;70.70
56478;DHT22;42382;53.210;5.772;2023-06-26T02:53:29;22.40;70.60
56478;DHT22;42382;53.210;5.772;2023-06-26T02:55:54;22.40;70.90
56478;DHT22;42382;53.210;5.772;2023-06-26T02:58:20;22.40;70.80
56478;DHT22;42382;53.210;5.772;2023-06-26T03:00:45;22.40;71.10
56478;DHT22;42382;53.210;5.772;2023-06-26T03:03:12;22.30;71.70
56478;DHT22;42382;53.210;5.772;2023-06-26T03:05:38;22.10;72.50
56478;DHT22;42382;53.210;5.772;2023-06-26T03:08:04;21.90;73.30
56478;DHT22;42382;53.210;5.772;2023-06-26T03:10:29;21.90;73.50
56478;DHT22;42382;53.210;5.772;2023-06-26T03:12:55;21.90;73.20
56478;DHT22;42382;53.210;5.772;2023-06-26T03:15:21;21.90;73.30
56478;DHT22;42382;53.210;5.772;2023-06-26T03:17:47;22.00;73.20
56478;DHT22;42382;53.210;5.772;2023-06-26T03:20:12;21.90;73.50
56478;DHT22;42382;53.210;5.772;2023-06-26T03:22:38;21.90;73.60
56478;DHT22;42382;53.210;5.772;2023-06-26T03:25:04;21.90;74.20
56478;DHT22;42382;53.210;5.772;2023-06-26T03:27:30;21.80;74.00
56478;DHT22;42382;53.210;5.772;2023-06-26T03:29:56;21.90;74.50
56478;DHT22;42382;53.210;5.772;2023-06-26T03:32:21;21.80;74.70
56478;DHT22;42382;53.210;5.772;2023-06-26T03:34:47;21.80;74.80
56478;DHT22;42382;53.210;5.772;2023-06-26T03:37:12;21.70;75.20
56478;DHT22;42382;53.210;5.772;2023-06-26T03:39:38;21.70;75.30
56478;DHT22;42382;53.210;5.772;2023-06-26T03:42:04;21.70;75.30
56478;DHT22;42382;53.210;5.772;2023-06-26T03:44:30;21.80;75.30
56478;DHT22;42382;53.210;5.772;2023-06-26T03:46:55;21.70;75.80
56478;DHT22;42382;53.210;5.772;2023-06-26T03:49:21;21.60;75.70
56478;DHT22;42382;53.210;5.772;2023-06-26T03:51:47;21.60;75.80
56478;DHT22;42382;53.210;5.772;2023-06-26T03:54:12;21.60;75.90
56478;DHT22;42382;53.210;5.772;2023-06-26T03:56:38;21.60;75.90
56478;DHT22;42382;53.210;5.772;2023-06-26T03:59:04;21.70;75.60
56478;DHT22;42382;53.210;5.772;2023-06-26T04:01:29;21.60;75.50
56478;DHT22;42382;53.210;5.772;2023-06-26T04:03:55;21.70;75.40
56478;DHT22;42382;53.210;5.772;2023-06-26T04:06:20;21.60;75.60
56478;DHT22;42382;53.210;5.772;2023-06-26T04:08:46;21.50;75.50
56478;DHT22;42382;53.210;5.772;2023-06-26T04:11:12;21.40;75.60
56478;DHT22;42382;53.210;5.772;2023-06-26T04:13:37;21.40;75.50
56478;DHT22;42382;53.210;5.772;2023-06-26T04:16:03;21.40;75.50
56478;DHT22;42382;53.210;5.772;2023-06-26T04:18:29;21.30;75.90
56478;DHT22;42382;53.210;5.772;2023-06-26T04:21:11;21.10;76.30
56478;DHT22;42382;53.210;5.772;2023-06-26T04:23:41;21.10;76.20
56478;DHT22;42382;53.210;5.772;2023-06-26T04:26:07;21.00;76.40
56478;DHT22;42382;53.210;5.772;2023-06-26T04:28:34;21.10;76.10
56478;DHT22;42382;53.210;5.772;2023-06-26T04:31:01;21.10;76.60
56478;DHT22;42382;53.210;5.772;2023-06-26T04:33:27;21.10;76.70
56478;DHT22;42382;53.210;5.772;2023-06-26T04:35:53;21.10;76.50
56478;DHT22;42382;53.210;5.772;2023-06-26T04:38:20;21.10;76.50
56478;DHT22;42382;53.210;5.772;2023-06-26T04:40:49;21.00;75.90
56478;DHT22;42382;53.210;5.772;2023-06-26T04:43:15;21.00;75.60
56478;DHT22;42382;53.210;5.772;2023-06-26T04:45:40;21.00;75.40
56478;DHT22;42382;53.210;5.772;2023-06-26T04:48:06;21.00;75.60
56478;DHT22;42382;53.210;5.772;2023-06-26T04:50:32;21.10;75.40
56478;DHT22;42382;53.210;5.772;2023-06-26T04:52:58;21.10;75.30
56478;DHT22;42382;53.210;5.772;2023-06-26T04:55:25;21.00;75.20
56478;DHT22;42382;53.210;5.772;2023-06-26T04:57:51;21.00;75.20
56478;DHT22;42382;53.210;5.772;2023-06-26T05:00:17;21.00;75.30
56478;DHT22;42382;53.210;5.772;2023-06-26T05:02:43;20.90;75.20
56478;DHT22;42382;53.210;5.772;2023-06-26T05:05:09;20.80;75.40
56478;DHT22;42382;53.210;5.772;2023-06-26T05:07:35;20.80;74.90
56478;DHT22;42382;53.210;5.772;2023-06-26T05:10:01;20.80;74.90
56478;DHT22;42382;53.210;5.772;2023-06-26T05:12:27;20.80;74.80
56478;DHT22;42382;53.210;5.772;2023-06-26T05:14:52;20.80;74.60
56478;DHT22;42382;53.210;5.772;2023-06-26T05:17:18;20.80;74.60
56478;DHT22;42382;53.210;5.772;2023-06-26T05:19:44;20.80;74.60
56478;DHT22;42382;53.210;5.772;2023-06-26T05:22:09;20.80;74.40
56478;DHT22;42382;53.210;5.772;2023-06-26T05:24:37;20.90;74.40
56478;DHT22;42382;53.210;5.772;2023-06-26T05:27:03;20.90;74.40
56478;DHT22;42382;53.210;5.772;2023-06-26T05:29:30;20.90;74.20
56478;DHT22;42382;53.210;5.772;2023-06-26T05:31:57;20.90;74.30
56478;DHT22;42382;53.210;5.772;2023-06-26T05:34:23;20.90;74.20
56478;DHT22;42382;53.210;5.772;2023-06-26T05:36:57;20.90;74.50
56478;DHT22;42382;53.210;5.772;2023-06-26T05:39:23;20.90;74.30
56478;DHT22;42382;53.210;5.772;2023-06-26T05:41:50;20.90;74.20
56478;DHT22;42382;53.210;5.772;2023-06-26T05:44:16;20.90;73.60
56478;DHT22;42382;53.210;5.772;2023-06-26T05:46:41;20.90;73.60
56478;DHT22;42382;53.210;5.772;2023-06-26T05:49:07;20.80;73.70
56478;DHT22;42382;53.210;5.772;2023-06-26T05:51:33;20.80;73.30
56478;DHT22;42382;53.210;5.772;2023-06-26T05:53:59;20.80;73.10
56478;DHT22;42382;53.210;5.772;2023-06-26T05:56:25;20.80;73.10
56478;DHT22;42382;53.210;5.772;2023-06-26T05:58:51;20.80;72.90
56478;DHT22;42382;53.210;5.772;2023-06-26T06:01:17;20.70;73.10
56478;DHT22;42382;53.210;5.772;2023-06-26T06:03:45;20.70;73.00
56478;DHT22;42382;53.210;5.772;2023-06-26T06:06:11;20.70;72.80
56478;DHT22;42382;53.210;5.772;2023-06-26T06:08:37;20.70;72.80
56478;DHT22;42382;53.210;5.772;2023-06-26T06:11:03;20.70;72.80
56478;DHT22;42382;53.210;5.772;2023-06-26T06:13:28;20.70;72.90
56478;DHT22;42382;53.210;5.772;2023-06-26T06:15:54;20.60;73.20
56478;DHT22;42382;53.210;5.772;2023-06-26T06:18:20;20.60;72.50
56478;DHT22;42382;53.210;5.772;2023-06-26T06:20:46;20.60;72.20
56478;DHT22;42382;53.210;5.772;2023-06-26T06:23:12;20.60;72.10
56478;DHT22;42382;53.210;5.772;2023-06-26T06:25:38;20.60;72.40
56478;DHT22;42382;53.210;5.772;2023-06-26T06:28:04;20.60;72.60
56478;DHT22;42382;53.210;5.772;2023-06-26T06:30:30;20.70;72.40
56478;DHT22;42382;53.210;5.772;2023-06-26T06:32:56;20.60;71.90
56478;DHT22;42382;53.210;5.772;2023-06-26T06:35:21;20.70;71.60
56478;DHT22;42382;53.210;5.772;2023-06-26T06:37:47;20.60;71.30
56478;DHT22;42382;53.210;5.772;2023-06-26T06:40:14;20.70;70.80
56478;DHT22;42382;53.210;5.772;2023-06-26T06:42:39;20.60;70.70
56478;DHT22;42382;53.210;5.772;2023-06-26T06:45:06;20.60;70.40
56478;DHT22;42382;53.210;5.772;2023-06-26T06:47:32;20.60;70.10
56478;DHT22;42382;53.210;5.772;2023-06-26T06:49:58;20.70;70.00
56478;DHT22;42382;53.210;5.772;2023-06-26T06:52:24;21.00;69.70
56478;DHT22;42382;53.210;5.772;2023-06-26T06:54:57;21.90;68.00
56478;DHT22;42382;53.210;5.772;2023-06-26T06:57:30;22.90;65.60
56478;DHT22;42382;53.210;5.772;2023-06-26T06:59:56;23.80;62.70
56478;DHT22;42382;53.210;5.772;2023-06-26T07:02:21;24.30;60.90
56478;DHT22;42382;53.210;5.772;2023-06-26T07:04:47;24.90;59.70
56478;DHT22;42382;53.210;5.772;2023-06-26T07:07:13;25.20;57.10
56478;DHT22;42382;53.210;5.772;2023-06-26T07:09:41;25.10;56.30
56478;DHT22;42382;53.210;5.772;2023-06-26T07:12:07;25.10;57.10
56478;DHT22;42382;53.210;5.772;2023-06-26T07:14:32;25.40;56.80
56478;DHT22;42382;53.210;5.772;2023-06-26T07:16:58;25.80;55.30
56478;DHT22;42382;53.210;5.772;2023-06-26T07:19:24;26.00;54.80
56478;DHT22;42382;53.210;5.772;2023-06-26T07:21:49;25.90;55.40
56478;DHT22;42382;53.210;5.772;2023-06-26T07:24:15;25.70;55.20
56478;DHT22;42382;53.210;5.772;2023-06-26T07:26:40;25.10;55.60
56478;DHT22;42382;53.210;5.772;2023-06-26T07:29:06;24.30;57.90
56478;DHT22;42382;53.210;5.772;2023-06-26T07:31:32;24.20;58.60
56478;DHT22;42382;53.210;5.772;2023-06-26T07:33:57;24.20;59.50
56478;DHT22;42382;53.210;5.772;2023-06-26T07:36:23;24.30;58.80
56478;DHT22;42382;53.210;5.772;2023-06-26T07:38:48;24.90;57.70
56478;DHT22;42382;53.210;5.772;2023-06-26T07:41:14;25.40;56.50
56478;DHT22;42382;53.210;5.772;2023-06-26T07:43:40;25.30;55.80
56478;DHT22;42382;53.210;5.772;2023-06-26T07:46:05;25.30;55.90
56478;DHT22;42382;53.210;5.772;2023-06-26T07:48:31;25.10;55.90
56478;DHT22;42382;53.210;5.772;2023-06-26T07:50:56;24.90;56.40
56478;DHT22;42382;53.210;5.772;2023-06-26T07:53:22;24.80;56.50
56478;DHT22;42382;53.210;5.772;2023-06-26T07:55:48;24.80;56.80
56478;DHT22;42382;53.210;5.772;2023-06-26T07:58:13;24.60;57.20
56478;DHT22;42382;53.210;5.772;2023-06-26T08:00:40;24.40;57.90
56478;DHT22;42382;53.210;5.772;2023-06-26T08:03:06;24.50;57.60
56478;DHT22;42382;53.210;5.772;2023-06-26T08:05:31;24.50;57.30
56478;DHT22;42382;53.210;5.772;2023-06-26T08:07:57;24.70;56.90
56478;DHT22;42382;53.210;5.772;2023-06-26T08:10:23;25.10;55.50
56478;DHT22;42382;53.210;5.772;2023-06-26T08:12:48;25.80;54.10
56478;DHT22;42382;53.210;5.772;2023-06-26T08:15:16;25.60;53.70
56478;DHT22;42382;53.210;5.772;2023-06-26T08:17:41;25.50;54.70
56478;DHT22;42382;53.210;5.772;2023-06-26T08:20:07;25.60;54.40
56478;DHT22;42382;53.210;5.772;2023-06-26T08:22:33;25.80;53.20
56478;DHT22;42382;53.210;5.772;2023-06-26T08:24:59;26.00;53.70
56478;DHT22;42382;53.210;5.772;2023-06-26T08:27:25;26.00;53.80
56478;DHT22;42382;53.210;5.772;2023-06-26T08:29:50;26.10;53.70
56478;DHT22;42382;53.210;5.772;2023-06-26T08:32:16;26.20;52.90
56478;DHT22;42382;53.210;5.772;2023-06-26T08:34:42;25.90;53.40
56478;DHT22;42382;53.210;5.772;2023-06-26T08:37:07;26.10;53.00
56478;DHT22;42382;53.210;5.772;2023-06-26T08:39:35;26.30;52.40
56478;DHT22;42382;53.210;5.772;2023-06-26T08:42:00;26.50;51.90
56478;DHT22;42382;53.210;5.772;2023-06-26T08:44:26;26.80;51.40
56478;DHT22;42382;53.210;5.772;2023-06-26T08:46:52;27.00;51.00
56478;DHT22;42382;53.210;5.772;2023-06-26T08:49:22;27.20;50.00
56478;DHT22;42382;53.210;5.772;2023-06-26T08:52:06;27.20;48.90
56478;DHT22;42382;53.210;5.772;2023-06-26T08:54:40;27.10;47.60
56478;DHT22;42382;53.210;5.772;2023-06-26T08:57:08;27.20;47.90
56478;DHT22;42382;53.210;5.772;2023-06-26T08:59:34;27.30;48.20
56478;DHT22;42382;53.210;5.772;2023-06-26T09:02:00;27.50;47.80
56478;DHT22;42382;53.210;5.772;2023-06-26T09:04:25;27.30;48.10
56478;DHT22;42382;53.210;5.772;2023-06-26T09:06:51;27.20;48.30
56478;DHT22;42382;53.210;5.772;2023-06-26T09:09:17;27.00;48.60
56478;DHT22;42382;53.210;5.772;2023-06-26T09:11:43;26.60;49.60
56478;DHT22;42382;53.210;5.772;2023-06-26T09:14:08;26.10;50.90
56478;DHT22;42382;53.210;5.772;2023-06-26T09:16:41;26.30;51.20
56478;DHT22;42382;53.210;5.772;2023-06-26T09:19:13;26.20;50.40
56478;DHT22;42382;53.210;5.772;2023-06-26T09:21:43;25.70;51.60
56478;DHT22;42382;53.210;5.772;2023-06-26T09:24:09;25.40;52.70
56478;DHT22;42382;53.210;5.772;2023-06-26T09:26:39;25.40;53.40
56478;DHT22;42382;53.210;5.772;2023-06-26T09:29:05;25.50;52.90
56478;DHT22;42382;53.210;5.772;2023-06-26T09:31:33;25.80;52.90
56478;DHT22;42382;53.210;5.772;2023-06-26T09:33:59;26.20;51.20
56478;DHT22;42382;53.210;5.772;2023-06-26T09:36:28;26.40;50.70
56478;DHT22;42382;53.210;5.772;2023-06-26T09:38:55;26.50;49.30
56478;DHT22;42382;53.210;5.772;2023-06-26T09:41:20;26.20;49.10
56478;DHT22;42382;53.210;5.772;2023-06-26T09:43:50;26.10;49.40
56478;DHT22;42382;53.210;5.772;2023-06-26T09:46:29;25.80;50.20
56478;DHT22;42382;53.210;5.772;2023-06-26T09:49:13;25.60;51.00
56478;DHT22;42382;53.210;5.772;2023-06-26T09:51:41;25.40;50.50
56478;DHT22;42382;53.210;5.772;2023-06-26T09:54:07;25.40;51.30
56478;DHT22;42382;53.210;5.772;2023-06-26T09:56:33;25.50;51.10
56478;DHT22;42382;53.210;5.772;2023-06-26T09:59:01;25.60;51.20
56478;DHT22;42382;53.210;5.772;2023-06-26T10:01:28;25.60;51.20
56478;DHT22;42382;53.210;5.772;2023-06-26T10:03:54;25.60;50.80
56478;DHT22;42382;53.210;5.772;2023-06-26T10:06:28;25.20;50.10
56478;DHT22;42382;53.210;5.772;2023-06-26T10:08:55;25.10;51.30
56478;DHT22;42382;53.210;5.772;2023-06-26T10:11:22;25.10;50.60
56478;DHT22;42382;53.210;5.772;2023-06-26T10:13:50;25.30;50.80
56478;DHT22;42382;53.210;5.772;2023-06-26T10:16:23;25.50;50.40
56478;DHT22;42382;53.210;5.772;2023-06-26T10:18:52;25.80;49.90
56478;DHT22;42382;53.210;5.772;2023-06-26T10:21:20;25.80;49.10
56478;DHT22;42382;53.210;5.772;2023-06-26T10:23:49;25.70;49.40
56478;DHT22;42382;53.210;5.772;2023-06-26T10:26:18;25.90;48.70
56478;DHT22;42382;53.210;5.772;2023-06-26T10:28:47;25.80;48.90
56478;DHT22;42382;53.210;5.772;2023-06-26T10:31:15;25.90;48.70
56478;DHT22;42382;53.210;5.772;2023-06-26T10:33:41;25.70;49.70
56478;DHT22;42382;53.210;5.772;2023-06-26T10:36:17;25.70;49.50
56478;DHT22;42382;53.210;5.772;2023-06-26T10:38:56;25.80;49.30
56478;DHT22;42382;53.210;5.772;2023-06-26T10:41:24;26.00;47.60
56478;DHT22;42382;53.210;5.772;2023-06-26T10:44:16;26.30;48.60
56478;DHT22;42382;53.210;5.772;2023-06-26T10:46:53;26.20;46.00
56478;DHT22;42382;53.210;5.772;2023-06-26T10:49:20;26.00;47.00
56478;DHT22;42382;53.210;5.772;2023-06-26T10:51:52;25.80;48.30
56478;DHT22;42382;53.210;5.772;2023-06-26T10:54:20;25.80;47.70
56478;DHT22;42382;53.210;5.772;2023-06-26T10:56:47;25.80;48.40
56478;DHT22;42382;53.210;5.772;2023-06-26T10:59:21;25.80;48.40
56478;DHT22;42382;53.210;5.772;2023-06-26T11:04:36;25.40;48.80
56478;DHT22;42382;53.210;5.772;2023-06-26T11:07:21;25.20;49.90
56478;DHT22;42382;53.210;5.772;2023-06-26T11:15:13;24.80;52.20
56478;DHT22;42382;53.210;5.772;2023-06-26T11:17:40;24.90;52.20
56478;DHT22;42382;53.210;5.772;2023-06-26T11:20:07;24.90;51.90
56478;DHT22;42382;53.210;5.772;2023-06-26T11:22:35;25.10;51.10
56478;DHT22;42382;53.210;5.772;2023-06-26T11:25:02;24.80;50.50
56478;DHT22;42382;53.210;5.772;2023-06-26T11:30:07;25.00;50.40
56478;DHT22;42382;53.210;5.772;2023-06-26T11:32:33;25.00;51.20
56478;DHT22;42382;53.210;5.772;2023-06-26T11:34:59;25.10;51.20
56478;DHT22;42382;53.210;5.772;2023-06-26T11:37:26;25.20;51.00
56478;DHT22;42382;53.210;5.772;2023-06-26T11:39:52;25.40;51.00
56478;DHT22;42382;53.210;5.772;2023-06-26T11:42:19;25.30;50.80
56478;DHT22;42382;53.210;5.772;2023-06-26T11:44:45;25.30;50.80
56478;DHT22;42382;53.210;5.772;2023-06-26T11:47:18;25.00;51.40
56478;DHT22;42382;53.210;5.772;2023-06-26T11:49:46;25.00;51.50
56478;DHT22;42382;53.210;5.772;2023-06-26T11:52:12;24.90;51.10
56478;DHT22;42382;53.210;5.772;2023-06-26T11:54:38;24.80;51.00
56478;DHT22;42382;53.210;5.772;2023-06-26T11:57:04;24.60;51.40
56478;DHT22;42382;53.210;5.772;2023-06-26T12:02:10;23.80;54.00
56478;DHT22;42382;53.210;5.772;2023-06-26T12:04:42;23.70;53.90
56478;DHT22;42382;53.210;5.772;2023-06-26T12:07:09;23.80;54.60
56478;DHT22;42382;53.210;5.772;2023-06-26T12:09:43;24.00;53.70
56478;DHT22;42382;53.210;5.772;2023-06-26T12:12:14;24.20;53.80
56478;DHT22;42382;53.210;5.772;2023-06-26T12:14:41;24.30;53.60
56478;DHT22;42382;53.210;5.772;2023-06-26T12:17:12;24.30;53.10
56478;DHT22;42382;53.210;5.772;2023-06-26T12:19:45;24.50;52.70
56478;DHT22;42382;53.210;5.772;2023-06-26T12:22:13;24.70;52.50
56478;DHT22;42382;53.210;5.772;2023-06-26T12:24:39;24.80;52.30
56478;DHT22;42382;53.210;5.772;2023-06-26T12:27:13;24.90;51.90
56478;DHT22;42382;53.210;5.772;2023-06-26T12:29:49;24.90;51.60
56478;DHT22;42382;53.210;5.772;2023-06-26T12:32:15;24.70;51.90
56478;DHT22;42382;53.210;5.772;2023-06-26T12:34:40;24.70;52.50
56478;DHT22;42382;53.210;5.772;2023-06-26T12:37:10;24.90;52.30
56478;DHT22;42382;53.210;5.772;2023-06-26T12:42:23;24.90;51.90
56478;DHT22;42382;53.210;5.772;2023-06-26T12:44:49;24.80;52.30
56478;DHT22;42382;53.210;5.772;2023-06-26T12:47:16;24.60;52.50
56478;DHT22;42382;53.210;5.772;2023-06-26T12:49:44;24.40;53.10
56478;DHT22;42382;53.210;5.772;2023-06-26T12:52:16;24.40;52.90
56478;DHT22;42382;53.210;5.772;2023-06-26T12:54:43;24.40;53.60
56478;DHT22;42382;53.210;5.772;2023-06-26T12:57:09;24.50;53.30
56478;DHT22;42382;53.210;5.772;2023-06-26T12:59:36;24.70;52.80
56478;DHT22;42382;53.210;5.772;2023-06-26T13:02:02;24.70;52.10
56478;DHT22;42382;53.210;5.772;2023-06-26T13:04:29;24.70;52.30
56478;DHT22;42382;53.210;5.772;2023-06-26T13:06:55;24.70;52.00
56478;DHT22;42382;53.210;5.772;2023-06-26T13:09:24;24.50;51.60
56478;DHT22;42382;53.210;5.772;2023-06-26T13:11:51;24.40;51.60
56478;DHT22;42382;53.210;5.772;2023-06-26T13:14:18;24.30;52.80
56478;DHT22;42382;53.210;5.772;2023-06-26T13:16:43;24.20;53.40
56478;DHT22;42382;53.210;5.772;2023-06-26T13:19:10;24.20;53.60
56478;DHT22;42382;53.210;5.772;2023-06-26T13:21:36;24.40;53.20
56478;DHT22;42382;53.210;5.772;2023-06-26T13:24:02;24.70;52.70
56478;DHT22;42382;53.210;5.772;2023-06-26T13:26:34;24.70;51.20
56478;DHT22;42382;53.210;5.772;2023-06-26T13:28:59;24.50;50.50
56478;DHT22;42382;53.210;5.772;2023-06-26T13:31:25;24.20;52.20
56478;DHT22;42382;53.210;5.772;2023-06-26T13:33:51;24.10;52.80
56478;DHT22;42382;53.210;5.772;2023-06-26T13:36:20;24.00;52.20
56478;DHT22;42382;53.210;5.772;2023-06-26T13:38:46;23.90;53.00
56478;DHT22;42382;53.210;5.772;2023-06-26T13:41:15;24.10;53.00
56478;DHT22;42382;53.210;5.772;2023-06-26T13:43:40;24.30;52.70
56478;DHT22;42382;53.210;5.772;2023-06-26T13:46:06;24.30;52.20
56478;DHT22;42382;53.210;5.772;2023-06-26T13:48:35;24.40;51.90
56478;DHT22;42382;53.210;5.772;2023-06-26T13:51:00;24.40;51.60
56478;DHT22;42382;53.210;5.772;2023-06-26T13:53:26;24.40;51.70
56478;DHT22;42382;53.210;5.772;2023-06-26T13:55:52;24.40;51.60
56478;DHT22;42382;53.210;5.772;2023-06-26T13:58:17;24.40;52.10
56478;DHT22;42382;53.210;5.772;2023-06-26T14:00:44;24.20;52.40
56478;DHT22;42382;53.210;5.772;2023-06-26T14:03:10;24.00;52.20
56478;DHT22;42382;53.210;5.772;2023-06-26T14:05:37;23.90;52.60
56478;DHT22;42382;53.210;5.772;2023-06-26T14:08:07;24.00;53.10
56478;DHT22;42382;53.210;5.772;2023-06-26T14:10:33;24.10;52.90
56478;DHT22;42382;53.210;5.772;2023-06-26T14:12:59;24.10;52.60
56478;DHT22;42382;53.210;5.772;2023-06-26T14:15:25;24.30;52.30
56478;DHT22;42382;53.210;5.772;2023-06-26T14:17:54;24.00;50.80
56478;DHT22;42382;53.210;5.772;2023-06-26T14:20:23;23.90;52.20
56478;DHT22;42382;53.210;5.772;2023-06-26T14:22:50;24.00;52.20
56478;DHT22;42382;53.210;5.772;2023-06-26T14:25:16;24.10;52.20
56478;DHT22;42382;53.210;5.772;2023-06-26T14:27:42;24.00;52.00
56478;DHT22;42382;53.210;5.772;2023-06-26T14:30:08;24.00;52.50
56478;DHT22;42382;53.210;5.772;2023-06-26T14:32:35;24.00;51.40
56478;DHT22;42382;53.210;5.772;2023-06-26T14:35:03;23.90;51.40
56478;DHT22;42382;53.210;5.772;2023-06-26T14:37:30;23.80;52.00
56478;DHT22;42382;53.210;5.772;2023-06-26T14:39:56;23.80;52.60
56478;DHT22;42382;53.210;5.772;2023-06-26T14:42:22;23.70;52.30
56478;DHT22;42382;53.210;5.772;2023-06-26T14:44:48;23.60;50.90
56478;DHT22;42382;53.210;5.772;2023-06-26T14:47:18;23.60;51.40
56478;DHT22;42382;53.210;5.772;2023-06-26T14:49:44;23.50;50.20
56478;DHT22;42382;53.210;5.772;2023-06-26T14:52:10;23.50;49.30
56478;DHT22;42382;53.210;5.772;2023-06-26T14:54:36;23.30;49.70
56478;DHT22;42382;53.210;5.772;2023-06-26T14:57:05;23.40;50.10
56478;DHT22;42382;53.210;5.772;2023-06-26T14:59:31;23.40;50.60
56478;DHT22;42382;53.210;5.772;2023-06-26T15:01:57;23.40;51.30
56478;DHT22;42382;53.210;5.772;2023-06-26T15:04:22;23.40;52.40
56478;DHT22;42382;53.210;5.772;2023-06-26T15:06:48;23.30;52.80
56478;DHT22;42382;53.210;5.772;2023-06-26T15:09:14;23.10;52.70
56478;DHT22;42382;53.210;5.772;2023-06-26T15:11:39;22.90;53.40
56478;DHT22;42382;53.210;5.772;2023-06-26T15:14:05;22.80;53.30
56478;DHT22;42382;53.210;5.772;2023-06-26T15:16:31;22.70;52.90
56478;DHT22;42382;53.210;5.772;2023-06-26T15:18:56;22.60;53.50
56478;DHT22;42382;53.210;5.772;2023-06-26T15:21:22;22.70;53.10
56478;DHT22;42382;53.210;5.772;2023-06-26T15:23:48;22.70;53.70
56478;DHT22;42382;53.210;5.772;2023-06-26T15:26:13;22.70;53.50
56478;DHT22;42382;53.210;5.772;2023-06-26T15:28:39;22.80;52.50
56478;DHT22;42382;53.210;5.772;2023-06-26T15:31:05;22.80;51.80
56478;DHT22;42382;53.210;5.772;2023-06-26T15:33:31;22.80;51.50
56478;DHT22;42382;53.210;5.772;2023-06-26T15:35:57;23.00;51.90
56478;DHT22;42382;53.210;5.772;2023-06-26T15:38:22;23.10;51.00
56478;DHT22;42382;53.210;5.772;2023-06-26T15:40:48;23.10;51.40
56478;DHT22;42382;53.210;5.772;2023-06-26T15:43:14;23.20;51.40
56478;DHT22;42382;53.210;5.772;2023-06-26T15:45:39;23.20;50.80
56478;DHT22;42382;53.210;5.772;2023-06-26T15:48:05;23.20;50.80
56478;DHT22;42382;53.210;5.772;2023-06-26T15:50:31;23.20;50.50